This is the latest recevied weather packets stored in our database for station/object KF5WCW-1. If no packets are shown the sender has not sent any weather packets the latest 10 day(s).
| Time | Temp. | Humidity | Pressure | Rain* | Wind** | Luminosity | Snow |
|---|---|---|---|---|---|---|---|
| 1777584380 | 2.78° C | 93% | 0 hPa | 1.02 mm | - | - | - |
| 1777584080 | 3.33° C | 91% | 0 hPa | 0.76 mm | - | - | - |
| 1777583780 | 3.33° C | 90% | 0 hPa | 0.51 mm | - | - | - |
| 1777583480 | 2.78° C | 88% | 0 hPa | 0.51 mm | - | - | - |
| 1777583180 | 3.33° C | 88% | 0 hPa | 0.51 mm | - | - | - |
| 1777582880 | 3.33° C | 87% | 0 hPa | 0.25 mm | - | - | - |
| 1777582580 | 3.89° C | 85% | 0 hPa | 0.25 mm | - | - | - |
| 1777582280 | 3.89° C | 85% | 0 hPa | 0 mm | - | - | - |
| 1777581980 | 3.89° C | 84% | 0 hPa | 0 mm | - | - | - |
| 1777581680 | 4.44° C | 84% | 0 hPa | 0 mm | - | - | - |
| 1777581380 | 4.44° C | 86% | 0 hPa | 0 mm | - | - | - |
| 1777581080 | 5° C | 82% | 0 hPa | 0 mm | - | - | - |
| 1777580780 | 6.11° C | 77% | 0 hPa | 0 mm | - | - | - |
| 1777580480 | 6.67° C | 75% | 0 hPa | 0 mm | - | - | - |
| 1777580180 | 7.22° C | 69% | 0 hPa | 0 mm | - | - | - |
| 1777579880 | 7.78° C | 69% | 0 hPa | 0 mm | - | - | - |
| 1777579580 | 7.22° C | 72% | 0 hPa | 0 mm | - | - | - |
| 1777579280 | 7.22° C | 72% | 0 hPa | 0 mm | - | - | - |
| 1777578980 | 6.67° C | 72% | 0 hPa | 0 mm | - | - | - |
| 1777578680 | 6.67° C | 72% | 0 hPa | 0 mm | - | - | - |
| 1777578380 | 7.22° C | 71% | 0 hPa | 0 mm | - | - | - |
| 1777578080 | 7.22° C | 70% | 0 hPa | 0 mm | - | - | - |
| 1777577780 | 7.22° C | 71% | 0 hPa | 0 mm | - | - | - |
| 1777577480 | 7.22° C | 74% | 0 hPa | 0 mm | - | - | - |
| 1777577180 | 7.78° C | 66% | 0 hPa | 0 mm | - | - | - |
* Rain latest hour (hover to see other rain measurements)
** Current wind speed in m/s (hover to see current wind gust speed)